Time;durP1;ratioP1;P1;durP2;ratioP2;P2;SDS_P1;SDS_P2;PMS_P1;PMS_P2;Temp;Humidity;BMP_temperature;BMP_pressure;BME280_temperature;BME280_humidity;BME280_pressure;Samples;Min_cycle;Max_cycle;Signal;HPM_P1;HPM_P2
2022/06/14 00:00:55;;;;;;;10.30;8.07;;;;;;;19.26;91.81;94823.50;5113595;28;20450;-77
2022/06/14 00:03:27;;;;;;;12.00;8.00;;;;;;;19.21;92.12;94820.56;5113738;28;20852;-77
2022/06/14 00:05:54;;;;;;;8.50;7.80;;;;;;;19.15;92.19;94816.00;5113600;28;20442;-77
2022/06/14 00:08:25;;;;;;;9.67;8.67;;;;;;;19.17;92.33;94821.97;5113539;28;20434;-76
2022/06/14 00:10:53;;;;;;;7.90;7.10;;;;;;;19.17;92.71;94830.75;5113315;28;20449;-77
2022/06/14 00:13:20;;;;;;;9.70;8.30;;;;;;;19.18;92.48;94832.41;5113454;28;20958;-77
2022/06/14 00:15:46;;;;;;;10.27;7.73;;;;;;;19.16;92.93;94829.13;5113487;28;20451;-77
2022/06/14 00:18:13;;;;;;;9.00;8.10;;;;;;;19.18;92.52;94827.09;5113209;28;20482;-76
2022/06/14 00:20:42;;;;;;;8.67;7.60;;;;;;;19.17;92.66;94825.44;5060375;28;20445;-77
2022/06/14 00:23:10;;;;;;;8.40;7.60;;;;;;;19.22;92.86;94832.03;5077205;28;20442;-77
2022/06/14 00:25:39;;;;;;;8.63;7.83;;;;;;;19.18;92.88;94827.09;5113527;28;20438;-77
2022/06/14 00:28:08;;;;;;;8.93;8.10;;;;;;;19.13;93.25;94823.34;5113499;28;20452;-77
2022/06/14 00:30:35;;;;;;;11.00;8.70;;;;;;;19.16;92.96;94823.78;5113265;28;20450;-77
2022/06/14 00:33:02;;;;;;;9.60;8.70;;;;;;;19.15;93.20;94831.97;5113235;28;20450;-77
2022/06/14 00:35:29;;;;;;;8.70;7.80;;;;;;;19.16;93.13;94828.28;5112435;28;20437;-77
2022/06/14 00:37:57;;;;;;;9.33;8.50;;;;;;;19.15;93.09;94832.78;5112725;28;20453;-77
2022/06/14 00:40:27;;;;;;;9.67;8.77;;;;;;;19.17;93.01;94825.44;5113111;28;20529;-77
2022/06/14 00:42:54;;;;;;;9.33;8.43;;;;;;;19.09;93.42;94820.22;5112897;28;20987;-78
2022/06/14 00:45:58;;;;;;;9.07;8.27;;;;;;;19.03;93.93;94826.25;5112879;28;20439;-78
2022/06/14 00:48:27;;;;;;;10.17;7.97;;;;;;;19.01;93.89;94824.78;5112795;28;20822;-78
2022/06/14 00:51:02;;;;;;;16.97;8.50;;;;;;;19.03;94.68;94828.09;5076721;28;20452;-78
2022/06/14 00:53:37;;;;;;;17.40;8.70;;;;;;;19.05;94.07;94831.38;5112850;28;20477;-77
2022/06/14 00:56:07;;;;;;;9.40;8.50;;;;;;;19.03;93.98;94828.91;5112784;28;20812;-77
2022/06/14 00:58:38;;;;;;;10.03;9.03;;;;;;;19.04;94.21;94829.75;5112852;28;20506;-77
2022/06/14 01:01:10;;;;;;;9.00;8.10;;;;;;;19.03;93.87;94831.56;5060289;28;20440;-77
2022/06/14 01:03:40;;;;;;;15.00;8.50;;;;;;;19.07;93.69;94829.38;5112600;28;20541;-77
2022/06/14 01:06:11;;;;;;;10.40;8.87;;;;;;;19.04;93.62;94835.88;5112598;28;20456;-77
2022/06/14 01:08:45;;;;;;;9.00;8.13;;;;;;;18.95;93.60;94837.00;5112481;28;20451;-76
2022/06/14 01:11:21;;;;;;;9.57;8.53;;;;;;;18.92;93.63;94828.56;5112488;28;20955;-77
2022/06/14 01:13:48;;;;;;;8.97;8.03;;;;;;;18.91;93.31;94826.91;5112360;28;20514;-77
2022/06/14 01:16:15;;;;;;;9.53;7.87;;;;;;;18.89;93.30;94827.09;5112430;28;20454;-77
2022/06/14 01:18:44;;;;;;;8.57;7.77;;;;;;;18.92;92.71;94826.72;5112487;28;20482;-77
2022/06/14 01:21:11;;;;;;;10.97;9.37;;;;;;;18.92;92.58;94829.38;5112572;28;20442;-77
2022/06/14 01:23:40;;;;;;;9.77;8.50;;;;;;;18.85;92.96;94823.97;5112360;28;20437;-77
2022/06/14 01:26:13;;;;;;;11.53;8.00;;;;;;;18.75;93.18;94830.53;5112521;28;20447;-77
2022/06/14 01:28:43;;;;;;;8.37;7.57;;;;;;;18.73;93.55;94837.88;5112559;28;20809;-77
2022/06/14 01:31:11;;;;;;;9.87;8.87;;;;;;;18.71;93.58;94838.06;5112255;28;20438;-77
2022/06/14 01:33:42;;;;;;;13.10;8.67;;;;;;;18.61;93.73;94826.00;5112367;28;20454;-77
2022/06/14 01:36:14;;;;;;;9.40;7.80;;;;;;;18.65;93.80;94830.00;5112203;28;20454;-77
2022/06/14 01:38:45;;;;;;;10.27;7.90;;;;;;;18.60;94.05;94827.03;5112033;28;20481;-77
2022/06/14 01:41:21;;;;;;;8.17;7.47;;;;;;;18.58;94.29;94830.69;5112582;28;20444;-77
2022/06/14 01:44:02;;;;;;;12.93;8.50;;;;;;;18.58;94.54;94837.84;5112399;28;20441;-76
2022/06/14 01:46:35;;;;;;;9.47;8.60;;;;;;;18.52;94.56;94836.72;5076368;28;20487;-77
2022/06/14 01:52:20;;;;;;;9.13;8.23;;;;;;;18.65;94.96;94836.13;5116149;28;20940;-77
2022/06/14 01:54:57;;;;;;;9.50;8.60;;;;;;;18.73;94.98;94833.38;5115926;28;20442;-77
2022/06/14 01:57:32;;;;;;;13.10;8.97;;;;;;;18.58;95.64;94836.00;5116146;28;20507;-78
2022/06/14 02:00:06;;;;;;;9.93;9.03;;;;;;;18.64;95.77;94844.28;5115674;28;20493;-77
2022/06/14 02:02:39;;;;;;;9.60;8.27;;;;;;;18.63;95.70;94840.81;5065102;28;20450;-77
2022/06/14 02:05:16;;;;;;;14.70;9.90;;;;;;;18.67;95.67;94843.91;5116242;28;20472;-77
2022/06/14 02:07:51;;;;;;;10.00;8.80;;;;;;;18.68;95.55;94841.09;5115684;28;20520;-77
2022/06/14 02:10:25;;;;;;;10.23;8.83;;;;;;;18.53;96.52;94843.69;5115618;28;21011;-77
2022/06/14 02:13:01;;;;;;;13.63;10.23;;;;;;;18.47;97.64;94849.69;5115917;28;20476;-77
2022/06/14 02:15:34;;;;;;;12.07;10.70;;;;;;;18.45;98.50;94846.41;5115676;28;20530;-77
2022/06/14 02:18:10;;;;;;;25.73;12.00;;;;;;;18.47;98.67;94843.56;5117015;28;20446;-77
2022/06/14 02:20:44;;;;;;;14.53;10.27;;;;;;;18.51;98.01;94847.53;5115664;28;20993;-77
2022/06/14 02:23:12;;;;;;;9.43;8.40;;;;;;;18.53;97.31;94843.69;5115635;28;20449;-77
2022/06/14 02:25:47;;;;;;;9.97;8.53;;;;;;;18.57;96.69;94833.53;5115525;28;20527;-77
2022/06/14 02:28:19;;;;;;;9.07;7.80;;;;;;;18.52;96.26;94846.53;5115419;28;21064;-77
2022/06/14 02:30:52;;;;;;;8.87;8.07;;;;;;;18.51;95.84;94845.72;5115380;28;20436;-77
2022/06/14 02:33:23;;;;;;;11.57;7.90;;;;;;;18.48;95.11;94845.22;5115301;28;20449;-77
2022/06/14 02:35:57;;;;;;;8.30;7.60;;;;;;;18.40;94.46;94853.25;5115202;28;20450;-76
2022/06/14 02:38:32;;;;;;;9.83;7.57;;;;;;;18.41;94.54;94861.06;5115118;28;20472;-77
2022/06/14 02:41:05;;;;;;;8.33;7.63;;;;;;;18.31;94.61;94863.13;5115107;28;20464;-77
2022/06/14 02:43:37;;;;;;;8.73;7.80;;;;;;;18.27;94.98;94867.16;5115207;28;20450;-77
2022/06/14 02:46:09;;;;;;;9.40;7.60;;;;;;;18.22;95.33;94865.03;5115273;28;20441;-77
2022/06/14 02:48:43;;;;;;;13.80;8.50;;;;;;;18.27;95.45;94864.50;5114946;28;20450;-77
2022/06/14 02:51:15;;;;;;;9.73;8.40;;;;;;;17.82;98.03;94882.03;5114716;28;20457;-78
2022/06/14 02:53:50;;;;;;;8.30;7.60;;;;;;;17.22;100.00;94884.44;5115147;28;20448;-77
2022/06/14 02:56:24;;;;;;;10.73;8.93;;;;;;;17.53;100.00;94892.44;5115265;28;20444;-76
2022/06/14 02:58:56;;;;;;;16.23;9.47;;;;;;;17.68;100.00;94890.75;5114252;28;20499;-76
2022/06/14 03:01:27;;;;;;;12.63;11.10;;;;;;;17.75;100.00;94881.09;5114631;28;20449;-77
2022/06/14 03:03:59;;;;;;;11.80;9.83;;;;;;;17.87;100.00;94892.13;5114591;28;20446;-78
2022/06/14 03:06:32;;;;;;;11.17;10.07;;;;;;;17.98;100.00;94890.94;5116039;28;20449;-80
2022/06/14 03:09:03;;;;;;;13.27;10.73;;;;;;;18.06;100.00;94898.84;5116495;28;20439;-80
2022/06/14 03:11:45;;;;;;;10.73;9.73;;;;;;;18.23;100.00;94900.41;5116387;28;20485;-82
2022/06/14 03:14:23;;;;;;;13.20;9.20;;;;;;;18.55;100.00;94900.16;5115888;28;20437;-81
2022/06/14 03:16:59;;;;;;;9.53;8.73;;;;;;;18.84;100.00;94901.25;5079924;28;20448;-80
2022/06/14 03:19:34;;;;;;;9.67;8.67;;;;;;;18.97;98.36;94890.81;5115508;28;21085;-80
2022/06/14 03:22:12;;;;;;;10.43;7.97;;;;;;;18.98;95.07;94895.13;5114850;28;20454;-77
2022/06/14 03:24:46;;;;;;;8.30;7.60;;;;;;;18.99;94.10;94902.09;5114674;28;20450;-77
2022/06/14 03:27:22;;;;;;;13.47;8.30;;;;;;;19.04;93.52;94905.03;5115068;28;20440;-77
2022/06/14 03:29:55;;;;;;;12.30;8.80;;;;;;;19.11;92.73;94911.31;5114611;28;20937;-77
2022/06/14 03:32:28;;;;;;;11.80;8.17;;;;;;;19.16;91.85;94903.59;5114638;28;20465;-77
2022/06/14 03:35:01;;;;;;;7.60;6.87;;;;;;;19.24;91.24;94897.34;5114474;28;20453;-77
2022/06/14 03:37:28;;;;;;;9.20;7.83;;;;;;;19.38;90.52;94896.56;5114884;28;20445;-76
2022/06/14 03:40:00;;;;;;;9.67;8.47;;;;;;;19.49;89.74;94887.25;5114483;28;20490;-77
2022/06/14 03:42:29;;;;;;;8.93;8.17;;;;;;;19.72;88.99;94882.69;5114549;28;20446;-77
2022/06/14 03:44:56;;;;;;;12.07;8.20;;;;;;;19.96;87.85;94888.72;5095481;28;20913;-77
2022/06/14 03:47:26;;;;;;;8.47;7.50;;;;;;;20.24;86.16;94888.78;5110744;28;20452;-77
2022/06/14 03:49:57;;;;;;;7.60;6.90;;;;;;;20.51;85.18;94895.22;5094224;28;20821;-78
2022/06/14 03:52:39;;;;;;;8.43;7.60;;;;;;;20.81;83.77;94891.41;5094224;28;20451;-77
2022/06/14 03:55:21;;;;;;;7.10;6.40;;;;;;;21.18;82.11;94897.44;5094313;28;20442;-77
2022/06/14 03:58:05;;;;;;;8.70;7.33;;;;;;;21.56;79.99;94897.91;5107676;28;20454;-77
2022/06/14 04:00:41;;;;;;;8.73;7.90;;;;;;;21.86;78.67;94903.78;5113792;28;20891;-78
2022/06/14 04:03:34;;;;;;;14.77;8.77;;;;;;;22.24;77.74;94910.34;5113989;28;20453;-77
2022/06/14 04:06:15;;;;;;;9.60;7.33;;;;;;;22.63;75.80;94906.13;5113600;28;20450;-77
2022/06/14 04:08:51;;;;;;;8.23;7.53;;;;;;;22.90;74.16;94912.34;5113839;28;20445;-78
2022/06/14 04:11:30;;;;;;;9.00;6.83;;;;;;;22.82;73.70;94916.03;5113173;28;20449;-77
2022/06/14 04:14:11;;;;;;;11.47;7.40;;;;;;;22.65;74.30;94914.75;5063897;28;20914;-78
2022/06/14 04:16:49;;;;;;;7.80;7.10;;;;;;;22.47;75.19;94918.00;5113562;28;20442;-77
2022/06/14 04:19:30;;;;;;;7.70;7.00;;;;;;;22.59;75.37;94926.28;5113630;28;20480;-77
2022/06/14 04:22:02;;;;;;;11.63;7.23;;;;;;;22.65;75.14;94929.97;5113550;28;20450;-77
2022/06/14 04:24:35;;;;;;;7.87;7.10;;;;;;;22.50;75.29;94927.47;5062614;28;20450;-77
2022/06/14 04:27:10;;;;;;;7.97;6.90;;;;;;;22.33;75.94;94927.03;5077322;28;20449;-77
2022/06/14 04:29:47;;;;;;;7.70;6.90;;;;;;;22.43;77.10;94937.34;5113492;28;20972;-77
2022/06/14 04:32:22;;;;;;;10.43;6.70;;;;;;;22.37;76.98;94928.28;5113565;28;20453;-76
2022/06/14 04:34:51;;;;;;;8.23;7.53;;;;;;;22.44;78.01;94928.28;5113415;28;20961;-78
2022/06/14 04:37:23;;;;;;;8.77;8.07;;;;;;;22.68;77.81;94935.75;5113351;28;20457;-78
2022/06/14 04:39:57;;;;;;;14.17;8.10;;;;;;;23.04;76.56;94939.94;5113319;28;20509;-77
2022/06/14 04:42:30;;;;;;;14.70;7.57;;;;;;;23.28;75.65;94943.84;5113382;28;20452;-78
2022/06/14 04:45:04;;;;;;;8.53;7.83;;;;;;;23.32;74.04;94951.25;5113435;28;20447;-77
2022/06/14 04:47:38;;;;;;;8.10;7.17;;;;;;;23.27;74.27;94953.72;5098894;28;20467;-77
2022/06/14 04:50:11;;;;;;;6.93;6.23;;;;;;;23.17;74.40;94947.97;5040092;28;20444;-77
2022/06/14 04:52:43;;;;;;;8.00;7.30;;;;;;;23.07;75.38;94952.91;5092697;28;20455;-77
2022/06/14 04:55:15;;;;;;;8.63;7.30;;;;;;;22.95;75.09;94951.88;5092406;28;20454;-77
2022/06/14 04:57:48;;;;;;;8.67;7.90;;;;;;;22.82;75.73;94958.84;5112377;28;20460;-77
2022/06/14 05:00:19;;;;;;;7.73;7.07;;;;;;;22.69;76.55;94952.63;5112914;28;20500;-77
2022/06/14 05:02:52;;;;;;;7.13;6.53;;;;;;;22.60;77.13;94949.31;5113351;28;20442;-78
2022/06/14 05:05:24;;;;;;;12.70;7.97;;;;;;;22.46;77.70;94951.13;5112802;28;20450;-78
2022/06/14 05:07:55;;;;;;;9.10;7.37;;;;;;;22.38;78.66;94950.50;5112833;28;20446;-77
2022/06/14 05:10:27;;;;;;;8.20;7.33;;;;;;;22.32;79.25;94945.97;5112766;28;20461;-79
2022/06/14 05:12:58;;;;;;;7.37;6.60;;;;;;;22.35;79.78;94949.03;5113160;28;20442;-78
2022/06/14 05:15:32;;;;;;;7.80;6.63;;;;;;;22.38;79.77;94945.16;5113176;28;20929;-77
2022/06/14 05:18:03;;;;;;;12.10;7.47;;;;;;;22.41;79.70;94950.09;5112933;28;20951;-78
2022/06/14 05:20:38;;;;;;;9.80;7.47;;;;;;;22.45;79.97;94956.69;5113082;28;20485;-78
2022/06/14 05:23:11;;;;;;;8.87;7.37;;;;;;;22.56;79.43;94956.13;5117207;28;20449;-77
2022/06/14 05:25:47;;;;;;;8.23;7.30;;;;;;;22.66;78.94;94955.72;5117155;28;20446;-78
2022/06/14 05:28:21;;;;;;;7.43;6.27;;;;;;;22.67;78.60;94954.69;5117247;28;20527;-78
2022/06/14 05:30:56;;;;;;;9.23;7.27;;;;;;;22.72;78.87;94953.03;5116762;28;20457;-77
2022/06/14 05:33:33;;;;;;;9.50;7.20;;;;;;;22.81;79.13;94957.19;5116790;28;20446;-77
2022/06/14 05:36:04;;;;;;;8.07;7.00;;;;;;;22.91;79.42;94967.53;5064811;28;20449;-78
2022/06/14 05:38:39;;;;;;;8.47;7.50;;;;;;;22.98;78.64;94970.19;5116787;28;20454;-77
2022/06/14 05:41:12;;;;;;;10.77;7.23;;;;;;;22.97;78.37;94961.34;5116936;28;20591;-77
2022/06/14 05:43:44;;;;;;;9.00;7.63;;;;;;;23.17;77.99;94972.06;5117154;28;20441;-78
2022/06/14 05:46:21;;;;;;;8.57;7.80;;;;;;;23.24;77.08;94972.06;5116937;28;20914;-78
2022/06/14 05:48:51;;;;;;;8.33;7.53;;;;;;;23.27;77.91;94972.47;5117081;28;20450;-77
2022/06/14 05:51:21;;;;;;;8.93;7.73;;;;;;;23.15;77.72;94977.63;5116760;28;20441;-78
2022/06/14 05:53:51;;;;;;;9.80;8.23;;;;;;;23.11;78.84;94978.22;5117065;28;20515;-78
2022/06/14 05:56:24;;;;;;;11.10;8.13;;;;;;;23.08;80.05;94978.63;5108721;28;20450;-76
2022/06/14 05:58:57;;;;;;;8.33;7.50;;;;;;;23.07;80.32;94987.69;5096426;28;20483;-78
2022/06/14 06:01:32;;;;;;;15.80;9.13;;;;;;;23.08;80.35;94984.00;5097096;28;20486;-80
2022/06/14 06:04:04;;;;;;;15.53;9.23;;;;;;;23.15;80.52;94991.03;5046578;28;20450;-80
2022/06/14 06:06:34;;;;;;;11.30;9.27;;;;;;;23.23;79.99;94986.47;5096579;28;20454;-82
2022/06/14 06:09:04;;;;;;;16.90;8.97;;;;;;;23.25;80.80;94995.13;5096893;28;20447;-79
2022/06/14 06:11:37;;;;;;;9.73;8.80;;;;;;;23.28;80.45;95003.56;5096675;28;20541;-77
2022/06/14 06:14:10;;;;;;;16.03;9.63;;;;;;;23.22;81.44;94995.56;5096068;28;20546;-76
2022/06/14 06:16:45;;;;;;;12.40;10.77;;;;;;;23.07;82.81;94987.69;5095836;28;20457;-77
2022/06/14 06:19:17;;;;;;;13.23;10.30;;;;;;;22.97;82.95;94995.31;5095833;28;20799;-77
2022/06/14 06:21:52;;;;;;;14.43;10.73;;;;;;;22.93;83.36;94999.44;5095614;28;20493;-78
2022/06/14 06:24:26;;;;;;;19.07;11.60;;;;;;;22.88;83.54;94985.84;5099838;28;20588;-77
2022/06/14 06:27:00;;;;;;;11.07;9.23;;;;;;;22.98;83.68;94996.97;5115439;28;20450;-77
2022/06/14 06:29:36;;;;;;;11.37;8.97;;;;;;;22.93;82.92;94994.91;5115787;28;20446;-77
2022/06/14 06:32:07;;;;;;;14.03;8.50;;;;;;;22.74;83.20;94987.63;5119083;28;20445;-78
2022/06/14 06:34:35;;;;;;;9.87;7.93;;;;;;;22.64;83.31;94988.00;5114927;28;20910;-77
2022/06/14 06:37:07;;;;;;;13.27;8.53;;;;;;;22.62;84.69;94984.72;5115593;28;20450;-77
2022/06/14 06:39:44;;;;;;;11.13;8.47;;;;;;;22.63;84.81;94993.56;5115753;28;20454;-77
2022/06/14 06:42:15;;;;;;;9.10;7.70;;;;;;;22.59;83.93;94985.13;5115495;28;20442;-77
2022/06/14 06:44:54;;;;;;;9.63;8.73;;;;;;;22.65;83.85;94986.97;5115712;28;21006;-77
2022/06/14 06:47:29;;;;;;;9.33;8.23;;;;;;;22.81;83.45;94991.16;5115699;28;20443;-77
2022/06/14 06:50:09;;;;;;;8.30;7.60;;;;;;;22.90;83.38;94991.81;5115758;28;20512;-77
2022/06/14 06:52:46;;;;;;;9.10;8.20;;;;;;;22.93;83.00;94973.50;5115710;28;20453;-77
2022/06/14 06:55:20;;;;;;;10.57;7.70;;;;;;;22.88;82.71;94989.34;5115418;28;20443;-77
2022/06/14 06:57:49;;;;;;;8.73;7.83;;;;;;;23.00;83.53;94997.56;5060533;28;20458;-77
2022/06/14 07:00:19;;;;;;;12.60;9.00;;;;;;;23.01;83.17;94999.22;5094840;28;20993;-77
2022/06/14 07:02:51;;;;;;;10.13;8.33;;;;;;;23.09;83.29;94996.34;5094914;28;20804;-77
2022/06/14 07:05:19;;;;;;;10.03;8.50;;;;;;;23.14;83.01;95000.09;5095037;28;20451;-78
2022/06/14 07:07:52;;;;;;;11.50;9.00;;;;;;;23.11;81.76;95003.13;5042710;28;20807;-77
2022/06/14 07:10:30;;;;;;;11.73;8.83;;;;;;;23.07;81.74;95006.44;5094699;28;20492;-78
2022/06/14 07:13:01;;;;;;;8.57;7.70;;;;;;;23.04;81.98;95015.69;5094970;28;20450;-77
2022/06/14 07:15:35;;;;;;;8.17;7.47;;;;;;;23.04;81.90;95012.19;5094738;28;20958;-77
2022/06/14 07:18:12;;;;;;;9.23;8.30;;;;;;;23.01;81.51;95016.13;5094865;28;20438;-77
2022/06/14 07:20:48;;;;;;;8.33;7.67;;;;;;;23.05;81.87;95012.00;5095280;28;20484;-78
2022/06/14 07:23:22;;;;;;;8.23;7.63;;;;;;;23.10;81.98;95014.06;5094619;28;20450;-77
2022/06/14 07:26:08;;;;;;;8.80;8.00;;;;;;;23.11;81.01;95013.03;5094597;28;20439;-77
2022/06/14 07:28:43;;;;;;;11.47;8.20;;;;;;;23.07;81.82;95017.16;5058736;28;20451;-77
2022/06/14 07:31:14;;;;;;;12.17;8.40;;;;;;;23.01;81.70;95013.44;5094593;28;20447;-77
2022/06/14 07:33:42;;;;;;;8.87;8.07;;;;;;;22.96;81.72;95023.94;5094479;28;20923;-77
2022/06/14 07:36:16;;;;;;;11.80;9.57;;;;;;;22.97;82.75;95024.75;5094250;28;20454;-77
2022/06/14 07:38:50;;;;;;;10.97;9.80;;;;;;;22.94;82.55;95022.47;5094203;28;20447;-77
2022/06/14 07:41:28;;;;;;;9.73;8.60;;;;;;;22.96;81.82;95017.75;5094044;28;20487;-77
2022/06/14 07:44:00;;;;;;;11.47;9.43;;;;;;;22.99;81.88;95026.19;5093872;28;20500;-77
2022/06/14 07:46:35;;;;;;;10.80;8.47;;;;;;;22.99;81.53;95028.06;5093880;28;20450;-77
2022/06/14 07:49:09;;;;;;;12.30;7.53;;;;;;;22.99;80.88;95020.84;5093858;28;20462;-77
2022/06/14 07:51:40;;;;;;;12.67;8.40;;;;;;;23.08;81.79;95032.16;5094244;28;20933;-77
2022/06/14 07:54:13;;;;;;;9.93;8.50;;;;;;;23.11;81.66;95034.44;5094288;28;20451;-78
2022/06/14 07:56:49;;;;;;;8.60;7.90;;;;;;;23.13;81.28;95029.72;5093968;28;20439;-78
2022/06/14 07:59:19;;;;;;;9.57;8.00;;;;;;;23.25;80.95;95027.25;5094313;28;20471;-77
2022/06/14 08:01:51;;;;;;;11.27;7.50;;;;;;;23.32;80.06;95036.94;5093366;28;20494;-77
2022/06/14 08:04:26;;;;;;;9.33;8.40;;;;;;;23.43;81.30;95031.00;5093757;28;20874;-77
2022/06/14 08:06:57;;;;;;;8.77;7.60;;;;;;;23.69;81.24;95023.97;5093608;28;20504;-77
2022/06/14 08:09:29;;;;;;;8.20;7.40;;;;;;;23.84;76.84;95035.31;5058562;28;20448;-78
2022/06/14 08:11:58;;;;;;;8.27;7.57;;;;;;;23.95;75.52;95032.00;5093755;28;20451;-78
2022/06/14 08:14:30;;;;;;;11.20;8.07;;;;;;;24.13;76.04;95025.16;5093594;28;20455;-77
2022/06/14 08:17:00;;;;;;;8.07;7.33;;;;;;;24.26;77.03;95028.63;5093659;28;20774;-78
2022/06/14 08:19:34;;;;;;;9.83;7.80;;;;;;;24.22;76.31;95026.56;5093391;28;20940;-77
2022/06/14 08:22:06;;;;;;;8.67;7.73;;;;;;;24.17;76.72;95021.03;5093560;28;20486;-77
2022/06/14 08:24:38;;;;;;;9.83;8.90;;;;;;;24.42;77.01;95024.69;5093545;28;20790;-78
2022/06/14 08:27:11;;;;;;;9.97;7.40;;;;;;;24.81;76.20;95023.69;5093498;28;20456;-78
2022/06/14 08:29:45;;;;;;;10.37;8.37;;;;;;;25.18;74.66;95022.06;5092977;28;20443;-78
2022/06/14 08:32:18;;;;;;;7.63;6.93;;;;;;;25.66;73.37;95020.63;5057182;28;20993;-77
2022/06/14 08:34:50;;;;;;;8.60;7.00;;;;;;;26.12;70.71;95018.38;5055752;28;20438;-77
2022/06/14 08:37:22;;;;;;;14.60;7.23;;;;;;;26.29;68.79;95012.38;5093202;28;20449;-77
2022/06/14 08:39:54;;;;;;;8.10;7.40;;;;;;;26.47;67.00;95015.94;5093252;28;20443;-77
2022/06/14 08:42:29;;;;;;;8.20;7.60;;;;;;;26.69;66.93;95015.47;5092940;28;20617;-77
2022/06/14 08:44:59;;;;;;;7.47;6.77;;;;;;;26.86;65.87;95017.28;5092884;28;20477;-78
2022/06/14 08:48:02;;;;;;;11.37;7.60;;;;;;;26.81;66.21;95014.47;5092847;28;20918;-78
2022/06/14 08:50:59;;;;;;;8.20;7.40;;;;;;;26.81;66.17;95010.94;5101276;28;20446;-77
2022/06/14 08:53:58;;;;;;;7.63;7.03;;;;;;;26.71;67.32;95013.38;5030474;28;20449;-78
2022/06/14 08:56:37;;;;;;;9.57;7.57;;;;;;;26.68;69.21;95005.75;5030008;28;20552;-78
2022/06/14 08:59:32;;;;;;;7.50;6.80;;;;;;;26.50;67.02;95010.09;5030233;28;20878;-77
2022/06/14 09:02:21;;;;;;;7.50;6.80;;;;;;;26.64;64.61;95004.56;5029965;28;20489;-78
2022/06/14 09:05:24;;;;;;;6.70;6.10;;;;;;;26.88;63.59;95006.28;5029793;28;20450;-77
2022/06/14 09:08:14;;;;;;;8.53;7.70;;;;;;;27.19;63.48;95007.97;5002143;28;20475;-77
2022/06/14 09:10:55;;;;;;;6.43;5.83;;;;;;;27.34;62.48;95007.53;5029674;28;20473;-77
2022/06/14 09:13:55;;;;;;;7.40;6.57;;;;;;;27.38;61.71;95003.31;5029873;28;20441;-78
2022/06/14 09:16:49;;;;;;;9.83;5.90;;;;;;;27.20;60.97;95001.53;5027446;28;20551;-77
2022/06/14 09:19:27;;;;;;;6.73;6.27;;;;;;;26.82;61.62;94999.13;4995953;28;20442;-77
2022/06/14 09:22:07;;;;;;;6.57;6.07;;;;;;;26.45;62.03;94993.81;5028687;28;20485;-78
2022/06/14 09:24:55;;;;;;;6.80;6.10;;;;;;;26.18;63.19;94990.56;5029208;28;20529;-78
2022/06/14 09:27:49;;;;;;;10.90;6.40;;;;;;;25.81;63.88;94997.78;5026641;28;20461;-78
2022/06/14 09:30:40;;;;;;;7.20;6.50;;;;;;;25.67;65.38;94995.44;5064962;28;20443;-79
2022/06/14 09:33:26;;;;;;;7.23;6.63;;;;;;;25.38;67.13;94988.84;5092424;28;20959;-79
2022/06/14 09:36:37;;;;;;;13.07;7.73;;;;;;;25.30;69.91;94987.25;5093274;28;20512;-81
2022/06/14 09:39:36;;;;;;;7.17;6.57;;;;;;;25.20;70.56;94984.25;5092012;28;20443;-78
2022/06/14 09:42:30;;;;;;;7.03;6.43;;;;;;;25.09;68.62;94991.09;4991109;28;20495;-80
2022/06/14 09:45:13;;;;;;;6.67;6.20;;;;;;;24.94;69.80;94985.22;4991210;28;20460;-80
2022/06/14 09:48:20;;;;;;;8.27;7.47;;;;;;;24.82;70.69;94982.38;4942522;28;20814;-79
2022/06/14 09:51:12;;;;;;;5.87;5.47;;;;;;;24.65;68.72;94989.28;4991102;28;20459;-78
2022/06/14 09:54:17;;;;;;;7.73;6.60;;;;;;;24.44;70.58;94995.78;4988491;28;20463;-78
2022/06/14 09:57:17;;;;;;;8.90;6.97;;;;;;;24.02;71.64;95006.00;4991692;28;20463;-81
2022/06/14 10:00:13;;;;;;;6.90;6.40;;;;;;;23.60;70.87;95003.81;4991420;28;20487;-81
2022/06/14 10:02:57;;;;;;;6.93;6.30;;;;;;;23.46;75.38;94995.75;4976648;28;20578;-81
2022/06/14 10:05:43;;;;;;;9.73;7.00;;;;;;;23.43;74.81;94987.31;4991492;28;20448;-81
2022/06/14 10:08:45;;;;;;;8.20;7.17;;;;;;;23.45;77.80;94986.06;5003828;28;20496;-81
2022/06/14 10:39:11;;;;;;;6.10;5.20;;;;;;;24.70;57.97;95002.88;5112478;27;20541;-92
2022/06/14 10:41:44;;;;;;;5.90;5.00;;;;;;;24.46;60.21;95001.75;5050016;28;20449;-92
2022/06/14 10:44:36;;;;;;;5.00;4.60;;;;;;;24.15;62.07;95009.69;5049894;28;20454;-93
2022/06/14 10:47:11;;;;;;;4.37;4.03;;;;;;;23.94;63.19;95006.22;5030001;28;20487;-92
2022/06/14 10:49:57;;;;;;;5.50;5.00;;;;;;;23.87;64.39;95002.75;5029065;28;20445;-92
2022/06/14 10:52:38;;;;;;;5.27;4.73;;;;;;;23.82;66.80;95001.72;5030131;28;20218;-92
2022/06/14 10:55:39;;;;;;;6.40;5.57;;;;;;;23.73;66.77;95014.53;5029841;28;20463;-91
2022/06/14 10:58:27;;;;;;;7.17;4.53;;;;;;;23.68;66.89;95008.94;5030299;28;20988;-91
2022/06/14 11:01:07;;;;;;;5.20;4.70;;;;;;;23.66;67.16;95011.00;5029890;28;20443;-91
2022/06/14 11:03:45;;;;;;;5.53;4.63;;;;;;;23.61;65.28;95011.63;5030026;28;20438;-92
2022/06/14 11:06:41;;;;;;;4.67;4.27;;;;;;;23.59;65.22;95011.03;5029776;28;20487;-90
2022/06/14 11:09:24;;;;;;;5.73;5.23;;;;;;;23.57;68.59;95014.94;4970945;28;20945;-90
2022/06/14 11:12:09;;;;;;;8.10;5.17;;;;;;;23.48;69.11;95009.78;4970788;28;20574;-91
2022/06/14 11:14:46;;;;;;;9.63;5.80;;;;;;;23.41;71.47;95008.91;4970368;28;20450;-91
2022/06/14 11:17:30;;;;;;;6.80;5.33;;;;;;;23.22;70.48;95017.78;4970138;28;20505;-90
2022/06/14 11:20:13;;;;;;;9.77;6.07;;;;;;;23.20;73.08;95014.50;5045531;28;20543;-90
2022/06/14 11:22:43;;;;;;;13.03;5.60;;;;;;;23.10;72.91;95019.41;5048693;28;20442;-91
2022/06/14 11:25:24;;;;;;;5.70;5.13;;;;;;;22.98;74.83;95013.03;5048036;28;20435;-90
2022/06/14 11:28:00;;;;;;;6.50;6.00;;;;;;;22.97;74.76;95014.03;5054003;28;20477;-91
2022/06/14 11:30:37;;;;;;;5.63;5.23;;;;;;;22.92;74.41;95011.16;5067920;28;20524;-91
2022/06/14 11:33:14;;;;;;;5.50;5.00;;;;;;;22.79;73.44;95012.72;5069574;28;20457;-92
2022/06/14 11:36:13;;;;;;;18.07;6.13;;;;;;;22.81;75.83;95005.34;5069097;28;21065;-90
2022/06/14 11:39:03;;;;;;;6.40;5.80;;;;;;;22.83;78.73;95000.63;4961872;28;20478;-92
2022/06/14 11:41:36;;;;;;;6.30;5.80;;;;;;;22.72;78.63;94998.53;4956919;28;20467;-92
2022/06/14 11:44:16;;;;;;;7.30;5.33;;;;;;;22.65;78.85;94989.66;4957343;29;20574;-91
2022/06/14 11:46:54;;;;;;;5.17;4.73;;;;;;;22.64;77.79;94982.66;4986159;28;20477;-91
2022/06/14 11:49:27;;;;;;;5.43;5.03;;;;;;;22.56;77.00;94981.00;4996064;28;20973;-91
2022/06/14 11:52:07;;;;;;;7.40;5.13;;;;;;;22.52;76.65;94977.06;4996213;28;20532;-92
2022/06/14 11:54:44;;;;;;;4.07;3.77;;;;;;;22.55;75.99;94973.16;4996164;28;20445;-92
2022/06/14 11:57:17;;;;;;;4.47;4.07;;;;;;;22.58;75.75;94971.97;4995907;28;20457;-92
2022/06/14 12:00:18;;;;;;;4.00;3.70;;;;;;;22.60;74.35;94985.94;4996165;28;20462;-92
2022/06/14 12:02:59;;;;;;;3.57;3.27;;;;;;;22.64;73.75;94977.31;4994742;28;20463;-91
2022/06/14 12:05:40;;;;;;;4.07;3.67;;;;;;;22.76;73.04;94980.22;4994782;28;20560;-93
2022/06/14 12:08:27;;;;;;;5.10;3.20;;;;;;;22.89;74.47;94982.13;4994920;28;20916;-92
2022/06/14 12:11:05;;;;;;;3.33;3.00;;;;;;;23.04;74.47;94988.09;4994976;28;20467;-92
2022/06/14 12:13:59;;;;;;;5.67;3.70;;;;;;;23.25;73.96;94985.25;4994913;28;20548;-92
2022/06/14 12:16:34;;;;;;;4.63;3.80;;;;;;;23.39;74.42;94976.16;5062639;28;20452;-91
2022/06/14 12:19:08;;;;;;;4.57;4.17;;;;;;;23.45;73.72;94978.03;5076686;28;20467;-86
2022/06/14 12:21:47;;;;;;;13.47;5.03;;;;;;;23.56;73.21;94986.50;5075566;28;20495;-86
2022/06/14 12:24:19;;;;;;;14.00;4.80;;;;;;;23.67;71.70;94967.94;5075574;28;20437;-85
2022/06/14 12:26:55;;;;;;;8.50;4.37;;;;;;;23.86;71.50;94966.25;5075469;28;20519;-86
2022/06/14 12:29:27;;;;;;;4.73;3.83;;;;;;;23.97;71.36;94968.25;5093033;28;20517;-85
2022/06/14 12:32:05;;;;;;;13.40;5.83;;;;;;;24.14;73.38;94968.63;5095954;28;20456;-89
2022/06/14 12:34:37;;;;;;;6.30;5.70;;;;;;;24.20;71.46;94969.66;5060276;28;20497;-85
2022/06/14 12:37:18;;;;;;;7.83;4.70;;;;;;;24.19;70.00;94963.47;5077116;28;20479;-90
2022/06/14 12:39:51;;;;;;;4.90;4.10;;;;;;;24.16;70.26;94961.19;5095679;28;20471;-85
2022/06/14 12:42:26;;;;;;;3.60;3.40;;;;;;;24.08;68.78;94966.81;5095376;28;20439;-84